Time;durP1;ratioP1;P1;durP2;ratioP2;P2;SDS_P1;SDS_P2;PMS_P1;PMS_P2;Temp;Humidity;BMP_temperature;BMP_pressure;BME280_temperature;BME280_humidity;BME280_pressure;Samples;Min_cycle;Max_cycle;Signal;HPM_P1;HPM_P2
2022/11/07 00:02:14;;;;;;;13.45;8.10;;;10.30;99.90;;;;;;4993385;28;20571;-78
2022/11/07 00:04:40;;;;;;;12.00;8.32;;;10.30;99.90;;;;;;4993242;28;20125;-79
2022/11/07 00:07:06;;;;;;;12.82;8.52;;;10.30;99.90;;;;;;4993363;28;20480;-78
2022/11/07 00:09:31;;;;;;;13.68;8.20;;;10.30;99.90;;;;;;4977722;28;20037;-79
2022/11/07 00:11:57;;;;;;;11.32;8.30;;;10.30;99.90;;;;;;5012267;28;20507;-78
2022/11/07 00:14:23;;;;;;;9.90;7.82;;;10.30;99.90;;;;;;5010998;28;20114;-79
2022/11/07 00:16:48;;;;;;;11.10;7.68;;;10.30;99.90;;;;;;4993010;28;20042;-80
2022/11/07 00:19:18;;;;;;;12.60;7.50;;;10.30;99.90;;;;;;5011171;28;20042;-78
2022/11/07 00:21:43;;;;;;;12.43;7.43;;;10.30;99.90;;;;;;4994102;28;20038;-79
2022/11/07 00:24:09;;;;;;;12.00;7.70;;;10.30;99.90;;;;;;4993281;28;20080;-78
2022/11/07 00:26:36;;;;;;;11.90;7.53;;;10.40;99.90;;;;;;4994401;28;20072;-77
2022/11/07 00:29:02;;;;;;;11.52;7.80;;;10.40;99.90;;;;;;4993102;28;20048;-77
2022/11/07 00:31:28;;;;;;;11.93;7.35;;;10.40;99.90;;;;;;4992934;28;20083;-78
2022/11/07 00:33:53;;;;;;;13.93;7.22;;;10.40;99.90;;;;;;4986552;28;20050;-78
2022/11/07 00:36:28;;;;;;;11.93;8.18;;;10.40;99.90;;;;;;4992761;28;20045;-77
2022/11/07 00:38:54;;;;;;;8.88;7.05;;;10.50;99.90;;;;;;4993658;28;20046;-79
2022/11/07 00:41:21;;;;;;;10.18;7.20;;;10.50;99.90;;;;;;4991810;28;20427;-80
2022/11/07 00:43:46;;;;;;;13.15;7.53;;;10.50;99.90;;;;;;4988360;28;20038;-77
2022/11/07 00:46:14;;;;;;;12.25;6.90;;;10.50;99.90;;;;;;4994205;28;20045;-78
2022/11/07 00:48:40;;;;;;;12.25;6.90;;;10.50;99.90;;;;;;4993575;28;20054;-78
2022/11/07 00:51:13;;;;;;;12.75;6.90;;;10.50;99.90;;;;;;4992856;28;20042;-79
2022/11/07 00:53:39;;;;;;;13.23;7.03;;;10.50;99.90;;;;;;4994920;28;20046;-79
2022/11/07 00:56:07;;;;;;;13.30;7.03;;;10.50;99.90;;;;;;4977443;28;20037;-79
2022/11/07 00:58:34;;;;;;;12.48;6.90;;;10.50;99.90;;;;;;4993049;28;20046;-78
2022/11/07 01:01:05;;;;;;;12.35;7.25;;;10.40;99.90;;;;;;4992132;28;20407;-78
2022/11/07 01:06:15;;;;;;;;;;;10.50;99.90;;;;;;4993163;28;20112;-78
2022/11/07 01:08:40;;;;;;;11.80;7.05;;;10.50;99.90;;;;;;4992207;28;20424;-79
2022/11/07 01:11:06;;;;;;;11.15;6.63;;;10.60;99.90;;;;;;4993855;28;20033;-80
2022/11/07 01:13:32;;;;;;;13.13;6.72;;;10.50;99.90;;;;;;4992660;28;20068;-78
2022/11/07 01:15:58;;;;;;;12.90;7.07;;;10.60;99.90;;;;;;4992878;28;20077;-78
2022/11/07 01:18:23;;;;;;;11.52;6.40;;;10.60;99.90;;;;;;4993094;28;20116;-77
2022/11/07 01:20:49;;;;;;;10.32;6.43;;;10.60;99.90;;;;;;4993657;28;20037;-79
2022/11/07 01:23:15;;;;;;;12.02;6.57;;;10.60;99.90;;;;;;4993640;28;20117;-78
2022/11/07 01:25:41;;;;;;;11.93;6.28;;;10.60;99.90;;;;;;4992564;28;20038;-78
2022/11/07 01:28:07;;;;;;;14.40;7.63;;;10.60;99.90;;;;;;4992235;28;20551;-78
2022/11/07 01:30:36;;;;;;;14.88;7.20;;;10.60;99.90;;;;;;4993245;28;20129;-79
2022/11/07 01:33:02;;;;;;;10.63;6.50;;;10.60;99.90;;;;;;4995026;28;20125;-79
2022/11/07 01:35:27;;;;;;;11.63;7.55;;;10.60;99.90;;;;;;4997384;28;20125;-79
2022/11/07 01:37:53;;;;;;;14.18;7.22;;;10.60;99.90;;;;;;4996650;28;20091;-79
2022/11/07 01:40:18;;;;;;;14.43;7.15;;;10.60;99.90;;;;;;4996436;28;20046;-79
2022/11/07 01:42:44;;;;;;;14.73;7.65;;;10.50;99.90;;;;;;4995431;28;20124;-78
2022/11/07 01:45:21;;;;;;;15.57;6.65;;;10.50;99.90;;;;;;4995679;28;20495;-79
2022/11/07 01:47:48;;;;;;;12.02;7.22;;;10.50;99.90;;;;;;4989972;28;20041;-78
2022/11/07 01:50:13;;;;;;;10.65;6.70;;;10.60;99.90;;;;;;4995283;28;20092;-79
2022/11/07 01:52:42;;;;;;;10.88;6.60;;;10.60;99.90;;;;;;4979649;28;20056;-78
2022/11/07 01:55:12;;;;;;;11.27;6.63;;;10.60;99.90;;;;;;4995137;28;20049;-79
2022/11/07 01:57:43;;;;;;;13.70;6.82;;;10.60;99.90;;;;;;4996615;28;20041;-78
2022/11/07 02:00:12;;;;;;;12.43;6.30;;;10.60;99.90;;;;;;4996808;28;20038;-78
2022/11/07 02:02:39;;;;;;;13.50;6.57;;;10.60;99.90;;;;;;4994596;28;20057;-78
2022/11/07 02:05:07;;;;;;;12.25;6.20;;;10.60;99.90;;;;;;4980609;28;20077;-79
2022/11/07 02:07:34;;;;;;;13.35;6.30;;;10.60;99.90;;;;;;4996523;28;20041;-78
2022/11/07 02:10:00;;;;;;;9.10;5.93;;;10.60;99.90;;;;;;4996560;28;20056;-78
2022/11/07 02:12:26;;;;;;;11.15;5.65;;;10.60;99.90;;;;;;4996515;28;20048;-78
2022/11/07 02:14:54;;;;;;;8.80;5.72;;;10.60;99.90;;;;;;4997006;28;20053;-79
2022/11/07 02:17:20;;;;;;;11.50;5.97;;;10.60;99.90;;;;;;4994044;28;20105;-78
2022/11/07 02:19:53;;;;;;;9.30;5.22;;;10.60;99.90;;;;;;4996121;28;20039;-77
2022/11/07 02:22:43;;;;;;;8.80;5.20;;;10.60;99.90;;;;;;4996550;28;20041;-78
2022/11/07 02:25:13;;;;;;;9.93;4.90;;;10.60;99.90;;;;;;4994138;28;20041;-78
2022/11/07 02:27:39;;;;;;;9.38;4.80;;;10.60;99.90;;;;;;4994976;28;20117;-78
2022/11/07 02:30:18;;;;;;;11.55;5.70;;;10.60;99.90;;;;;;4996147;28;20124;-78
2022/11/07 02:32:44;;;;;;;15.13;5.78;;;10.60;99.90;;;;;;4996048;28;20052;-78
2022/11/07 02:35:36;;;;;;;9.75;4.72;;;10.60;99.90;;;;;;4995300;28;20042;-78
2022/11/07 02:38:23;;;;;;;9.80;4.53;;;10.60;99.90;;;;;;4978330;28;20038;-78
2022/11/07 02:41:11;;;;;;;12.95;5.03;;;10.60;99.90;;;;;;5006882;28;20493;-78
2022/11/07 02:43:40;;;;;;;12.50;5.47;;;10.60;99.90;;;;;;4995128;28;20042;-78
2022/11/07 02:46:10;;;;;;;10.02;4.95;;;10.50;99.90;;;;;;4994777;28;20149;-79
2022/11/07 02:48:55;;;;;;;13.00;5.35;;;10.50;99.90;;;;;;4989465;28;20037;-77
2022/11/07 02:51:21;;;;;;;10.05;4.93;;;10.60;99.90;;;;;;4979911;28;20088;-78
2022/11/07 02:53:46;;;;;;;10.70;4.90;;;10.60;99.90;;;;;;4995793;28;20131;-78
2022/11/07 02:56:12;;;;;;;12.57;5.03;;;10.50;99.90;;;;;;4995738;28;20049;-78
2022/11/07 02:58:38;;;;;;;16.10;5.03;;;10.60;99.90;;;;;;4993931;28;20434;-77
2022/11/07 03:01:07;;;;;;;7.97;4.10;;;10.60;99.90;;;;;;4995609;28;20069;-78
2022/11/07 03:03:35;;;;;;;10.18;4.38;;;10.60;99.90;;;;;;4990807;28;20045;-79
2022/11/07 03:06:01;;;;;;;9.07;3.50;;;10.60;99.90;;;;;;4995362;28;20117;-78
2022/11/07 03:08:27;;;;;;;8.40;3.30;;;10.60;99.90;;;;;;4978900;28;20133;-78
2022/11/07 03:10:53;;;;;;;10.25;3.90;;;10.50;99.90;;;;;;4993109;28;20034;-77
2022/11/07 03:13:18;;;;;;;10.52;4.15;;;10.50;99.90;;;;;;4995384;28;20515;-78
2022/11/07 03:15:44;;;;;;;10.80;4.13;;;10.40;99.90;;;;;;4995824;28;20050;-77
2022/11/07 03:18:09;;;;;;;10.45;4.43;;;10.40;99.90;;;;;;4995156;28;20033;-77
2022/11/07 03:20:35;;;;;;;9.90;4.85;;;10.40;99.90;;;;;;4995365;28;20046;-77
2022/11/07 03:23:00;;;;;;;9.77;4.55;;;10.40;99.90;;;;;;4995366;28;20104;-77
2022/11/07 03:25:26;;;;;;;13.95;4.55;;;10.40;99.90;;;;;;4994089;28;20064;-78
2022/11/07 03:27:51;;;;;;;12.02;4.72;;;10.40;99.90;;;;;;4993980;28;20454;-78
2022/11/07 03:30:17;;;;;;;9.02;4.70;;;10.40;99.90;;;;;;4994214;28;20129;-78
2022/11/07 03:32:42;;;;;;;10.57;4.47;;;10.50;99.90;;;;;;4978626;28;20192;-78
2022/11/07 03:35:08;;;;;;;14.32;4.93;;;10.50;99.90;;;;;;4995185;28;20042;-77
2022/11/07 03:37:34;;;;;;;9.27;4.28;;;10.50;99.90;;;;;;4995004;28;20056;-77
2022/11/07 03:39:59;;;;;;;9.80;4.28;;;10.50;99.90;;;;;;4994833;28;20060;-78
2022/11/07 03:42:25;;;;;;;12.05;4.40;;;10.40;99.90;;;;;;4994190;28;20567;-78
2022/11/07 03:44:50;;;;;;;11.43;3.75;;;10.40;99.90;;;;;;4994624;28;20034;-78
2022/11/07 03:47:16;;;;;;;8.15;3.55;;;10.40;99.90;;;;;;4994757;28;20074;-77
2022/11/07 03:49:42;;;;;;;9.20;3.90;;;10.40;99.90;;;;;;4994638;28;20121;-77
2022/11/07 03:52:07;;;;;;;11.68;3.80;;;10.40;99.90;;;;;;4976703;28;20155;-79
2022/11/07 03:54:33;;;;;;;9.68;4.00;;;10.40;99.90;;;;;;4994511;28;20081;-78
2022/11/07 03:56:58;;;;;;;10.48;3.75;;;10.30;99.90;;;;;;4994463;28;20065;-78
2022/11/07 03:59:24;;;;;;;9.77;4.32;;;10.40;99.90;;;;;;4992886;28;20095;-78
2022/11/07 04:01:49;;;;;;;10.90;3.92;;;10.40;99.90;;;;;;4977796;28;20056;-78
2022/11/07 04:04:15;;;;;;;11.57;4.20;;;10.40;99.90;;;;;;4994488;28;20121;-78
2022/11/07 04:06:40;;;;;;;13.38;3.83;;;10.30;99.90;;;;;;4994572;28;20037;-78
2022/11/07 04:09:06;;;;;;;10.27;3.63;;;10.30;99.90;;;;;;4993988;28;20537;-78
2022/11/07 04:17:18;;;;;;;12.00;3.70;;;10.20;99.90;;;;;;5011868;28;20053;-78
2022/11/07 04:19:46;;;;;;;11.38;3.50;;;10.20;99.90;;;;;;4979076;28;20033;-78
2022/11/07 04:22:11;;;;;;;10.23;3.88;;;10.20;99.90;;;;;;4991205;28;20030;-78
2022/11/07 04:24:37;;;;;;;9.13;3.92;;;10.20;99.90;;;;;;4993216;28;20460;-79
2022/11/07 04:29:46;;;;;;;13.60;4.40;;;10.20;99.90;;;;;;4993947;28;20056;-79
2022/11/07 04:32:12;;;;;;;16.63;4.50;;;10.20;99.90;;;;;;4993419;28;20404;-78
2022/11/07 04:34:37;;;;;;;15.32;4.30;;;10.30;99.90;;;;;;4992681;28;20133;-78
2022/11/07 04:37:03;;;;;;;14.90;4.13;;;10.30;99.90;;;;;;4994179;28;20065;-79
2022/11/07 04:39:29;;;;;;;10.15;3.58;;;10.30;99.90;;;;;;4993764;28;20041;-78
2022/11/07 04:41:55;;;;;;;12.02;3.92;;;10.30;99.90;;;;;;4993808;28;20080;-78
2022/11/07 04:44:21;;;;;;;16.13;4.57;;;10.30;99.90;;;;;;4992180;28;20042;-78
2022/11/07 04:46:46;;;;;;;10.07;4.00;;;10.30;99.90;;;;;;4976037;28;20129;-78
2022/11/07 04:49:14;;;;;;;11.15;4.20;;;10.30;99.90;;;;;;4992106;28;20062;-78
2022/11/07 04:51:43;;;;;;;11.10;3.45;;;10.30;99.90;;;;;;4993369;28;20556;-78
2022/11/07 04:54:12;;;;;;;11.75;4.05;;;10.30;99.90;;;;;;4977451;28;20044;-78
2022/11/07 04:56:38;;;;;;;10.98;4.57;;;10.30;99.90;;;;;;4993793;28;20038;-79
2022/11/07 04:59:04;;;;;;;14.25;5.07;;;10.30;99.90;;;;;;4993520;28;20096;-78
2022/11/07 05:01:29;;;;;;;12.25;5.65;;;10.40;99.90;;;;;;4992977;28;20482;-78
2022/11/07 05:03:55;;;;;;;12.27;4.82;;;10.40;99.90;;;;;;4993612;28;20034;-78
2022/11/07 05:06:20;;;;;;;16.23;4.75;;;10.40;99.90;;;;;;4993804;28;20041;-78
2022/11/07 05:08:46;;;;;;;12.13;4.53;;;10.40;99.90;;;;;;4994357;28;20035;-79
2022/11/07 05:11:12;;;;;;;12.57;4.63;;;10.30;99.90;;;;;;4997552;28;20510;-78
2022/11/07 05:13:38;;;;;;;14.10;4.80;;;10.40;99.90;;;;;;4980340;28;20041;-79
2022/11/07 05:16:03;;;;;;;13.55;4.93;;;10.30;99.90;;;;;;4981612;28;20050;-78
2022/11/07 05:18:29;;;;;;;13.00;4.78;;;10.30;99.90;;;;;;4995847;28;20065;-79
2022/11/07 05:20:55;;;;;;;13.48;4.72;;;10.30;99.90;;;;;;4996688;28;20042;-78
2022/11/07 05:23:21;;;;;;;11.27;4.55;;;10.30;99.90;;;;;;4997332;28;20042;-78
2022/11/07 05:25:48;;;;;;;10.63;4.63;;;10.30;99.90;;;;;;5015081;28;20041;-78
2022/11/07 05:28:16;;;;;;;16.25;5.25;;;10.20;99.90;;;;;;4997293;28;20057;-79
2022/11/07 05:30:43;;;;;;;13.15;4.80;;;10.20;99.90;;;;;;4997685;28;20049;-78
2022/11/07 05:33:10;;;;;;;11.65;4.88;;;10.20;99.90;;;;;;4994916;28;20103;-78
2022/11/07 05:35:36;;;;;;;10.25;4.82;;;10.10;99.90;;;;;;4996190;28;20042;-78
2022/11/07 05:38:02;;;;;;;11.20;4.65;;;10.10;99.90;;;;;;4996852;28;20056;-78
2022/11/07 05:40:27;;;;;;;12.30;5.03;;;10.10;99.90;;;;;;4997108;28;20500;-78
2022/11/07 05:42:59;;;;;;;12.32;5.82;;;10.10;99.90;;;;;;4980954;28;20033;-78
2022/11/07 05:45:25;;;;;;;13.20;5.57;;;10.20;99.90;;;;;;4995650;28;20121;-78
2022/11/07 05:47:57;;;;;;;14.07;5.80;;;10.20;99.90;;;;;;4996977;28;20033;-78
2022/11/07 05:50:23;;;;;;;14.18;5.57;;;10.30;99.90;;;;;;4997336;28;20056;-78
2022/11/07 05:52:48;;;;;;;14.40;5.65;;;10.30;99.90;;;;;;4980274;28;20045;-79
2022/11/07 05:55:14;;;;;;;14.38;6.20;;;10.30;99.90;;;;;;4995865;28;20145;-79
2022/11/07 05:57:39;;;;;;;9.55;5.65;;;10.30;99.90;;;;;;4996581;28;20041;-78
2022/11/07 06:00:05;;;;;;;12.85;6.32;;;10.30;99.90;;;;;;4996973;28;20053;-78
2022/11/07 06:02:31;;;;;;;12.80;6.35;;;10.20;99.90;;;;;;4996152;28;20041;-78
2022/11/07 06:04:57;;;;;;;17.20;6.82;;;10.30;99.90;;;;;;4996953;28;20041;-78
2022/11/07 06:07:22;;;;;;;13.93;6.30;;;10.30;99.90;;;;;;4994705;28;20041;-78
2022/11/07 06:09:48;;;;;;;12.30;5.90;;;10.20;99.90;;;;;;4996310;28;20052;-78
2022/11/07 06:12:13;;;;;;;16.83;7.35;;;10.30;99.90;;;;;;4995944;28;20049;-78
2022/11/07 06:14:39;;;;;;;13.43;6.40;;;10.30;99.90;;;;;;4995405;28;20057;-78
2022/11/07 06:17:06;;;;;;;20.58;7.30;;;10.30;99.90;;;;;;4979550;28;20030;-77
2022/11/07 06:19:32;;;;;;;16.88;6.78;;;10.30;99.90;;;;;;4976805;28;20049;-77
2022/11/07 06:21:59;;;;;;;13.73;6.32;;;10.30;99.90;;;;;;5013906;28;20038;-77
2022/11/07 06:24:25;;;;;;;14.80;6.38;;;10.30;99.90;;;;;;4996598;28;20029;-78
2022/11/07 06:26:50;;;;;;;19.60;6.75;;;10.30;99.90;;;;;;5012437;28;20499;-78
2022/11/07 06:29:16;;;;;;;17.30;6.32;;;10.30;99.90;;;;;;4993110;28;20557;-78
2022/11/07 06:31:41;;;;;;;17.30;6.45;;;10.20;99.90;;;;;;5013282;28;20038;-78
2022/11/07 06:34:07;;;;;;;11.77;5.95;;;10.20;99.90;;;;;;4992290;28;20072;-77
2022/11/07 06:36:32;;;;;;;12.15;6.10;;;10.20;99.90;;;;;;4995792;28;20128;-78
2022/11/07 06:38:58;;;;;;;13.80;6.03;;;10.20;99.90;;;;;;4993112;28;20046;-77
2022/11/07 06:41:23;;;;;;;16.05;6.45;;;10.20;99.90;;;;;;4993874;28;20042;-77
2022/11/07 06:43:50;;;;;;;16.27;6.03;;;10.20;99.90;;;;;;4994084;28;20062;-78
2022/11/07 06:46:18;;;;;;;13.80;6.45;;;10.20;99.90;;;;;;4993102;28;20085;-77
2022/11/07 06:48:43;;;;;;;12.38;6.22;;;10.20;99.90;;;;;;4993573;28;20561;-78
2022/11/07 06:51:10;;;;;;;11.48;5.40;;;10.20;99.90;;;;;;4994134;28;20045;-78
2022/11/07 06:53:36;;;;;;;13.30;5.20;;;10.20;99.90;;;;;;4992957;28;20037;-78
2022/11/07 06:56:04;;;;;;;14.48;5.22;;;10.20;99.90;;;;;;4989264;28;20054;-77
2022/11/07 06:58:30;;;;;;;14.40;4.88;;;10.10;99.90;;;;;;4985625;28;20049;-78
2022/11/07 07:01:08;;;;;;;9.77;4.60;;;10.20;99.90;;;;;;4992834;28;20042;-78
2022/11/07 07:03:34;;;;;;;13.07;5.10;;;10.10;99.90;;;;;;4995269;28;20042;-78
2022/11/07 07:06:01;;;;;;;9.93;4.18;;;10.20;99.90;;;;;;4979591;28;20044;-78
2022/11/07 07:08:27;;;;;;;11.07;4.55;;;10.20;99.90;;;;;;4995531;28;20435;-78
2022/11/07 07:10:53;;;;;;;14.52;4.70;;;10.20;99.90;;;;;;4995544;28;20231;-78
2022/11/07 07:13:18;;;;;;;13.15;4.68;;;10.20;99.90;;;;;;4994491;28;20058;-77
2022/11/07 07:15:55;;;;;;;11.68;4.40;;;10.20;99.90;;;;;;4993974;28;20037;-78
2022/11/07 07:18:21;;;;;;;14.80;4.82;;;10.20;99.90;;;;;;4994999;28;20113;-77
2022/11/07 07:20:47;;;;;;;16.42;5.53;;;10.20;99.90;;;;;;4995373;28;20471;-77
2022/11/07 07:23:13;;;;;;;14.27;5.50;;;10.30;99.90;;;;;;4983872;28;20046;-78
2022/11/07 07:25:38;;;;;;;15.52;5.78;;;10.30;99.90;;;;;;4973705;28;20318;-78
2022/11/07 07:28:04;;;;;;;16.38;6.65;;;10.30;99.90;;;;;;4972901;28;21421;-78
2022/11/07 07:30:30;;;;;;;15.55;6.40;;;10.30;99.90;;;;;;4971320;28;20053;-78
2022/11/07 07:32:55;;;;;;;17.17;7.00;;;10.30;99.90;;;;;;4977509;28;20053;-78
2022/11/07 07:35:21;;;;;;;16.90;7.22;;;10.30;99.90;;;;;;4973291;28;20563;-78
2022/11/07 07:37:50;;;;;;;15.63;7.68;;;10.40;99.90;;;;;;4974977;28;20117;-78
2022/11/07 07:40:16;;;;;;;20.02;7.80;;;10.30;99.90;;;;;;4975770;28;20096;-78
2022/11/07 07:42:42;;;;;;;18.70;7.55;;;10.40;99.90;;;;;;4979247;28;20046;-78
2022/11/07 07:45:10;;;;;;;19.80;8.02;;;10.40;99.90;;;;;;4974317;28;20581;-79
2022/11/07 07:47:36;;;;;;;19.35;8.48;;;10.40;99.90;;;;;;4990518;28;20587;-78
2022/11/07 07:50:02;;;;;;;19.00;8.07;;;10.40;99.90;;;;;;4985013;28;20068;-79
2022/11/07 07:52:27;;;;;;;22.45;8.35;;;10.50;99.90;;;;;;4974204;28;20097;-78
2022/11/07 07:54:54;;;;;;;18.42;8.55;;;10.50;99.90;;;;;;4973327;28;20042;-78
2022/11/07 07:57:20;;;;;;;18.50;8.07;;;10.50;99.90;;;;;;4976922;28;20049;-79
2022/11/07 07:59:46;;;;;;;21.98;9.10;;;10.50;99.90;;;;;;4973075;28;20066;-78
2022/11/07 08:02:11;;;;;;;18.88;8.45;;;10.50;99.90;;;;;;4993836;28;20050;-79
2022/11/07 08:04:37;;;;;;;19.52;8.55;;;10.50;99.90;;;;;;4973346;28;20179;-78
2022/11/07 08:07:03;;;;;;;17.08;7.70;;;10.50;99.90;;;;;;4976267;28;20045;-78
2022/11/07 08:09:35;;;;;;;21.17;8.48;;;10.60;99.90;;;;;;4973353;28;20057;-77
2022/11/07 08:12:04;;;;;;;20.45;8.50;;;10.60;99.90;;;;;;4993351;28;20040;-77
2022/11/07 08:14:29;;;;;;;21.88;8.48;;;10.60;99.90;;;;;;4976823;28;20038;-78
2022/11/07 08:16:55;;;;;;;23.92;9.75;;;10.60;99.90;;;;;;4992866;28;20037;-78
2022/11/07 08:19:21;;;;;;;17.60;8.20;;;10.70;99.90;;;;;;4992628;28;20042;-78
2022/11/07 08:21:47;;;;;;;19.83;8.35;;;10.80;99.90;;;;;;4977240;28;20061;-78
2022/11/07 08:24:12;;;;;;;19.58;8.38;;;10.70;99.90;;;;;;4994495;28;20526;-78
2022/11/07 08:26:38;;;;;;;18.17;8.48;;;10.70;99.90;;;;;;4991425;28;20045;-79
2022/11/07 08:29:04;;;;;;;24.23;8.82;;;10.80;99.90;;;;;;4992061;28;20034;-77
2022/11/07 08:31:29;;;;;;;17.10;8.32;;;10.80;99.90;;;;;;4976234;28;20125;-78
2022/11/07 08:33:59;;;;;;;17.23;8.40;;;10.80;99.90;;;;;;4991765;28;20030;-78
2022/11/07 08:36:26;;;;;;;23.70;8.50;;;10.80;99.90;;;;;;4992668;28;20041;-79
2022/11/07 08:38:51;;;;;;;20.70;8.60;;;10.80;99.90;;;;;;4992860;28;20707;-79
2022/11/07 08:41:18;;;;;;;19.75;9.00;;;10.80;99.90;;;;;;4990422;28;20038;-78
2022/11/07 08:43:44;;;;;;;20.42;8.02;;;10.80;99.90;;;;;;4992497;28;20088;-78
2022/11/07 08:46:09;;;;;;;19.10;8.20;;;10.90;99.90;;;;;;4992518;28;20034;-78
2022/11/07 08:48:35;;;;;;;20.48;7.93;;;10.90;99.90;;;;;;4992935;28;20034;-78
2022/11/07 08:51:03;;;;;;;20.50;8.30;;;10.90;99.90;;;;;;4993861;28;20038;-77
2022/11/07 08:53:29;;;;;;;19.33;8.27;;;10.90;99.90;;;;;;4992059;28;20100;-78
2022/11/07 08:56:03;;;;;;;19.10;7.28;;;10.90;99.90;;;;;;4991804;28;20086;-78
2022/11/07 08:58:28;;;;;;;16.25;7.88;;;10.90;99.90;;;;;;4991392;28;20045;-78
2022/11/07 09:00:54;;;;;;;24.17;7.63;;;10.90;99.90;;;;;;4989005;28;20038;-79
2022/11/07 09:03:19;;;;;;;20.85;8.40;;;11.00;99.90;;;;;;4988836;28;20038;-79
2022/11/07 09:05:45;;;;;;;24.23;8.13;;;11.00;99.90;;;;;;5004629;28;20046;-78
2022/11/07 09:08:10;;;;;;;19.13;7.95;;;11.00;99.90;;;;;;4991508;28;20038;-78
2022/11/07 09:10:36;;;;;;;22.33;7.03;;;11.10;99.90;;;;;;4993197;28;20495;-78
2022/11/07 09:13:02;;;;;;;15.80;6.72;;;11.10;99.90;;;;;;4993981;28;20042;-78
2022/11/07 09:15:28;;;;;;;17.83;7.47;;;11.10;99.90;;;;;;4991965;28;20041;-78
2022/11/07 09:17:53;;;;;;;19.55;7.28;;;11.20;99.90;;;;;;4992060;28;20092;-78
2022/11/07 09:20:19;;;;;;;20.73;7.45;;;11.20;99.90;;;;;;4993723;28;20097;-77
2022/11/07 09:22:44;;;;;;;18.70;6.82;;;11.30;99.90;;;;;;4991091;28;20045;-78
2022/11/07 09:25:10;;;;;;;19.27;7.10;;;11.30;99.90;;;;;;4991631;28;20117;-78
2022/11/07 09:27:36;;;;;;;19.73;7.65;;;11.30;99.90;;;;;;4976203;28;20026;-78
2022/11/07 09:30:05;;;;;;;28.73;7.88;;;11.40;99.90;;;;;;4990940;28;20041;-78
2022/11/07 09:32:31;;;;;;;14.70;6.32;;;11.40;99.90;;;;;;5006556;28;20046;-78
2022/11/07 09:34:56;;;;;;;21.20;7.03;;;11.40;99.90;;;;;;4992538;28;20038;-79
2022/11/07 09:37:22;;;;;;;14.77;6.63;;;11.50;99.90;;;;;;4992640;28;20053;-78
2022/11/07 09:39:48;;;;;;;21.42;6.10;;;11.50;99.90;;;;;;4975537;28;20439;-79
2022/11/07 09:42:42;;;;;;;17.90;6.18;;;11.50;99.90;;;;;;4989055;28;20041;-79
2022/11/07 09:45:12;;;;;;;14.23;5.82;;;11.60;99.90;;;;;;4991025;28;20038;-78
2022/11/07 09:47:46;;;;;;;15.95;6.53;;;11.60;99.90;;;;;;4990234;28;20388;-79
2022/11/07 09:50:18;;;;;;;18.13;5.97;;;11.60;99.90;;;;;;4987187;28;20076;-79
2022/11/07 09:53:00;;;;;;;14.77;5.97;;;11.60;99.90;;;;;;4986942;28;20511;-79
2022/11/07 09:55:36;;;;;;;20.85;5.93;;;11.60;99.90;;;;;;4987677;28;20041;-79
2022/11/07 09:58:17;;;;;;;16.00;5.65;;;11.70;99.90;;;;;;4990647;28;20088;-79
2022/11/07 10:00:43;;;;;;;13.85;5.22;;;11.80;99.90;;;;;;4995270;28;20120;-79
2022/11/07 10:03:09;;;;;;;16.42;5.78;;;11.80;99.90;;;;;;4996517;28;20478;-78
2022/11/07 10:06:06;;;;;;;17.50;5.72;;;11.80;99.90;;;;;;4979403;28;20041;-79
2022/11/07 10:09:00;;;;;;;13.07;5.25;;;11.80;99.90;;;;;;4994477;28;20041;-79
2022/11/07 10:11:46;;;;;;;13.98;5.63;;;11.80;99.90;;;;;;4994748;28;20030;-79
2022/11/07 10:14:35;;;;;;;14.00;5.90;;;11.90;99.90;;;;;;4994002;28;20053;-79
2022/11/07 10:17:29;;;;;;;15.20;4.97;;;11.90;99.90;;;;;;4994640;28;20103;-78
2022/11/07 10:20:02;;;;;;;;;;;11.90;99.90;;;;;;4994354;28;20041;-79
2022/11/07 10:22:37;;;;;;;16.00;5.10;;;11.90;99.90;;;;;;4977818;28;19921;-77
2022/11/07 10:25:02;;;;;;;15.88;5.57;;;11.90;99.90;;;;;;4994497;28;20566;-78
2022/11/07 10:27:28;;;;;;;13.82;5.18;;;11.90;99.90;;;;;;4994356;28;20109;-77
2022/11/07 10:29:54;;;;;;;15.95;5.22;;;12.00;99.90;;;;;;4994402;28;20042;-77
2022/11/07 10:33:02;;;;;;;15.82;5.22;;;12.00;99.90;;;;;;4994740;28;20415;-77
2022/11/07 10:35:32;;;;;;;14.52;4.75;;;12.10;99.90;;;;;;4996077;28;20125;-77
2022/11/07 10:37:59;;;;;;;15.18;5.03;;;12.10;99.90;;;;;;4995796;28;20048;-77
2022/11/07 10:40:34;;;;;;;18.73;4.90;;;12.10;99.90;;;;;;4993955;28;20038;-77
2022/11/07 10:43:03;;;;;;;14.85;4.57;;;12.20;99.90;;;;;;4986780;28;20526;-77
2022/11/07 10:45:31;;;;;;;11.65;4.32;;;12.30;99.90;;;;;;4996187;28;20549;-77
2022/11/07 10:47:59;;;;;;;14.32;4.50;;;12.30;99.90;;;;;;4995759;28;20092;-78
2022/11/07 10:50:25;;;;;;;10.13;4.85;;;12.40;99.90;;;;;;4997025;28;20491;-77
2022/11/07 10:52:59;;;;;;;16.77;4.10;;;12.40;99.90;;;;;;4995804;28;20066;-78
2022/11/07 10:55:27;;;;;;;12.32;4.10;;;12.50;99.90;;;;;;4979631;28;20045;-78
2022/11/07 10:57:58;;;;;;;8.70;3.60;;;12.50;99.90;;;;;;4978739;28;20052;-78
2022/11/07 11:00:30;;;;;;;9.50;4.15;;;12.50;99.90;;;;;;4995550;28;20056;-78
2022/11/07 11:02:56;;;;;;;12.48;4.28;;;12.50;99.90;;;;;;5002369;28;20129;-78
2022/11/07 11:05:27;;;;;;;11.48;4.10;;;12.50;99.90;;;;;;5003278;28;20434;-78
2022/11/07 11:08:06;;;;;;;13.25;4.43;;;12.50;99.90;;;;;;4997905;28;20491;-78
2022/11/07 11:10:37;;;;;;;14.98;5.13;;;12.60;99.90;;;;;;4995646;28;20077;-78
2022/11/07 11:13:03;;;;;;;13.35;4.78;;;12.60;99.90;;;;;;4994872;28;20496;-78
2022/11/07 11:15:28;;;;;;;14.05;4.40;;;12.70;99.90;;;;;;4993900;28;20046;-77
2022/11/07 11:18:00;;;;;;;13.63;4.43;;;12.70;99.90;;;;;;4994499;28;20076;-77
2022/11/07 11:20:34;;;;;;;11.95;4.07;;;12.70;99.90;;;;;;4996624;28;20049;-79
2022/11/07 11:23:04;;;;;;;13.98;4.57;;;12.70;99.90;;;;;;4978903;28;20041;-78
2022/11/07 11:25:30;;;;;;;13.60;4.50;;;12.70;99.90;;;;;;4978905;28;20076;-78
2022/11/07 11:28:04;;;;;;;13.70;4.22;;;12.70;99.90;;;;;;4994727;28;20602;-79
2022/11/07 11:30:34;;;;;;;11.75;3.97;;;12.80;99.90;;;;;;4978738;28;20056;-78
2022/11/07 11:33:10;;;;;;;12.52;4.57;;;12.70;99.90;;;;;;4994392;28;20064;-79
2022/11/07 11:35:48;;;;;;;12.93;3.97;;;12.80;99.90;;;;;;4994946;28;20088;-79
2022/11/07 11:38:23;;;;;;;14.40;4.28;;;12.80;99.90;;;;;;4994118;28;20134;-78
2022/11/07 11:41:05;;;;;;;13.50;4.22;;;12.80;99.90;;;;;;4994216;28;20479;-78
2022/11/07 11:43:57;;;;;;;9.77;4.55;;;12.80;99.90;;;;;;4991381;28;20034;-78
2022/11/07 11:46:29;;;;;;;12.77;4.03;;;12.80;99.90;;;;;;4995771;28;20586;-78
2022/11/07 11:48:57;;;;;;;12.38;4.32;;;12.90;99.90;;;;;;4992455;28;20117;-79
2022/11/07 11:51:43;;;;;;;15.07;4.53;;;13.00;99.90;;;;;;4993626;28;20129;-79
2022/11/07 11:54:11;;;;;;;14.57;4.15;;;13.00;99.90;;;;;;4993039;28;20120;-78
2022/11/07 11:56:49;;;;;;;13.63;4.30;;;13.20;99.90;;;;;;4976195;28;20084;-78
2022/11/07 11:59:35;;;;;;;12.52;4.68;;;13.30;99.90;;;;;;4974251;28;20090;-78
2022/11/07 12:02:26;;;;;;;14.20;4.72;;;13.40;99.90;;;;;;4994604;28;20407;-79
2022/11/07 12:05:04;;;;;;;14.65;4.47;;;13.50;99.90;;;;;;4994986;28;20050;-78
2022/11/07 12:07:54;;;;;;;10.90;4.55;;;13.60;99.90;;;;;;4994649;28;20395;-79
2022/11/07 12:10:38;;;;;;;10.98;3.88;;;13.70;99.90;;;;;;4993364;28;20041;-80
2022/11/07 12:13:15;;;;;;;13.35;4.38;;;13.60;99.90;;;;;;4994607;28;20078;-79
2022/11/07 12:15:59;;;;;;;14.38;3.70;;;13.60;99.90;;;;;;4974666;28;20130;-79
2022/11/07 12:18:51;;;;;;;11.70;3.85;;;13.70;99.90;;;;;;4989544;28;20525;-79
2022/11/07 12:21:38;;;;;;;12.90;3.90;;;13.70;99.90;;;;;;4992671;28;20065;-78
2022/11/07 12:24:30;;;;;;;15.02;4.18;;;13.70;99.90;;;;;;4994067;28;20035;-78
2022/11/07 12:27:07;;;;;;;13.23;4.05;;;13.70;99.90;;;;;;4991394;28;20074;-79
2022/11/07 12:30:03;;;;;;;9.35;3.90;;;13.70;99.90;;;;;;4994110;28;20026;-79
2022/11/07 12:32:42;;;;;;;10.13;4.22;;;13.80;99.90;;;;;;4981902;28;20041;-79
2022/11/07 12:35:35;;;;;;;9.50;3.97;;;13.90;99.90;;;;;;4992966;28;20519;-79
2022/11/07 12:38:13;;;;;;;10.05;3.72;;;14.00;99.90;;;;;;4994048;28;20495;-79
2022/11/07 12:40:57;;;;;;;9.05;3.80;;;13.90;99.90;;;;;;4988120;28;20038;-79
2022/11/07 12:43:47;;;;;;;8.35;3.35;;;13.90;99.90;;;;;;4993129;28;20084;-79
2022/11/07 12:46:41;;;;;;;8.38;3.60;;;13.80;99.90;;;;;;4975039;28;20053;-78
2022/11/07 12:49:28;;;;;;;9.05;3.13;;;13.90;99.90;;;;;;4990904;28;20109;-78
2022/11/07 12:52:09;;;;;;;9.10;3.33;;;13.90;99.90;;;;;;5005160;28;20041;-78
2022/11/07 12:54:48;;;;;;;11.75;3.38;;;14.00;99.90;;;;;;4985068;28;20060;-79
2022/11/07 12:57:27;;;;;;;8.52;3.10;;;14.10;99.90;;;;;;4977165;28;20092;-79
2022/11/07 13:00:18;;;;;;;12.00;3.25;;;14.00;99.90;;;;;;4992432;28;20084;-79
2022/11/07 13:02:57;;;;;;;8.27;2.80;;;14.00;99.90;;;;;;4993422;28;20515;-78